createdAt,value
2022-09-22T00:01:30.599Z,4.20
2022-09-22T00:04:00.333Z,4.13
2022-09-22T00:06:30.894Z,5.40
2022-09-22T00:09:00.702Z,4.60
2022-09-22T00:11:45.233Z,5.03
2022-09-22T00:14:30.188Z,5.32
2022-09-22T00:17:00.335Z,4.93
2022-09-22T00:19:33.717Z,5.00
2022-09-22T00:22:00.736Z,5.10
2022-09-22T00:24:28.285Z,5.30
2022-09-22T00:26:57.700Z,5.63
2022-09-22T00:29:26.291Z,5.60
2022-09-22T00:31:56.197Z,5.25
2022-09-22T00:34:25.493Z,5.22
2022-09-22T00:36:52.587Z,5.60
2022-09-22T00:39:20.154Z,5.28
2022-09-22T00:41:51.014Z,5.65
2022-09-22T00:44:26.413Z,4.87
2022-09-22T00:47:04.671Z,5.10
2022-09-22T00:49:42.352Z,4.78
2022-09-22T00:52:10.010Z,5.75
2022-09-22T00:54:38.449Z,4.90
2022-09-22T00:57:11.777Z,5.07
2022-09-22T00:59:39.760Z,5.15
2022-09-22T01:02:06.867Z,5.22
2022-09-22T01:04:33.814Z,5.25
2022-09-22T01:07:02.593Z,4.38
2022-09-22T01:09:32.944Z,5.47
2022-09-22T01:12:03.888Z,4.93
2022-09-22T01:14:55.811Z,5.43
2022-09-22T01:17:43.862Z,4.90
2022-09-22T01:20:48.836Z,5.88
2022-09-22T01:23:43.234Z,5.28
2022-09-22T01:26:19.910Z,5.00
2022-09-22T01:28:55.899Z,5.28
2022-09-22T01:31:52.118Z,4.97
2022-09-22T01:34:36.289Z,5.03
2022-09-22T01:37:19.739Z,4.70
2022-09-22T01:39:54.907Z,4.72
2022-09-22T01:42:29.565Z,4.60
2022-09-22T01:45:03.328Z,4.70
2022-09-22T01:47:44.724Z,4.63
2022-09-22T01:50:24.168Z,4.95
2022-09-22T01:52:53.238Z,4.65
2022-09-22T01:55:24.912Z,4.60
2022-09-22T01:57:57.500Z,4.78
2022-09-22T02:00:24.768Z,4.60
2022-09-22T02:03:01.675Z,5.07
2022-09-22T02:05:51.658Z,4.80
2022-09-22T02:08:28.194Z,5.32
2022-09-22T02:10:58.857Z,5.50
2022-09-22T02:13:25.791Z,4.75
2022-09-22T02:16:01.972Z,5.47
2022-09-22T02:19:11.607Z,5.45
2022-09-22T02:21:44.818Z,5.47
2022-09-22T02:24:34.610Z,5.25
2022-09-22T02:27:35.583Z,5.28
2022-09-22T02:30:08.482Z,5.13
2022-09-22T02:32:37.971Z,4.63
2022-09-22T02:35:06.164Z,4.70
2022-09-22T02:37:46.223Z,5.10
2022-09-22T02:40:24.254Z,5.53
2022-09-22T02:43:02.462Z,5.22
2022-09-22T02:45:55.066Z,5.43
2022-09-22T02:48:24.614Z,5.82
2022-09-22T02:50:52.714Z,5.07
2022-09-22T02:53:19.689Z,5.32
2022-09-22T02:55:47.205Z,5.75
2022-09-22T02:58:16.343Z,5.78
2022-09-22T03:00:44.366Z,5.70
2022-09-22T03:03:11.911Z,4.88
2022-09-22T03:05:39.008Z,5.47
2022-09-22T03:08:06.556Z,6.00
2022-09-22T03:10:33.298Z,5.47
2022-09-22T03:13:16.101Z,5.35
2022-09-22T03:15:47.796Z,4.88
2022-09-22T03:18:14.753Z,5.13
2022-09-22T03:20:41.702Z,4.80
2022-09-22T03:23:08.791Z,4.97
2022-09-22T03:25:35.645Z,5.68
2022-09-22T03:28:02.799Z,4.47
2022-09-22T03:30:29.656Z,5.15
2022-09-22T03:32:56.649Z,5.35
2022-09-22T03:35:23.420Z,5.32
2022-09-22T03:37:52.618Z,4.95
2022-09-22T03:40:19.347Z,5.00
2022-09-22T03:42:46.124Z,5.70
2022-09-22T03:45:13.038Z,5.13
2022-09-22T03:47:39.734Z,5.68
2022-09-22T03:50:07.064Z,5.68
2022-09-22T03:52:34.429Z,6.10
2022-09-22T03:55:02.975Z,5.70
2022-09-22T03:57:30.387Z,6.03
2022-09-22T03:59:57.159Z,5.72
2022-09-22T04:02:23.922Z,5.65
2022-09-22T04:04:50.839Z,5.75
2022-09-22T04:07:17.562Z,5.22
2022-09-22T04:09:44.217Z,5.30
2022-09-22T04:12:11.092Z,5.03
2022-09-22T04:14:37.794Z,5.70
2022-09-22T04:17:05.948Z,6.30
2022-09-22T04:19:35.695Z,6.30
2022-09-22T04:22:03.549Z,6.00
2022-09-22T04:24:30.281Z,5.90
2022-09-22T04:27:18.607Z,5.32
2022-09-22T04:29:44.245Z,6.18
2022-09-22T04:32:10.945Z,6.50
2022-09-22T04:34:37.941Z,6.28
2022-09-22T04:37:04.736Z,5.97
2022-09-22T04:39:31.377Z,6.82
2022-09-22T04:41:58.040Z,6.88
2022-09-22T04:44:27.294Z,7.15
2022-09-22T04:46:55.875Z,7.30
2022-09-22T04:49:25.297Z,7.40
2022-09-22T04:51:52.107Z,6.57
2022-09-22T04:54:21.090Z,7.15
2022-09-22T04:56:47.932Z,7.57
2022-09-22T04:59:14.817Z,8.48
2022-09-22T05:01:41.654Z,9.02
2022-09-22T05:04:13.375Z,7.20
2022-09-22T05:06:42.103Z,7.43
2022-09-22T05:09:08.827Z,7.78
2022-09-22T05:11:35.527Z,6.82
2022-09-22T05:14:02.626Z,7.50
2022-09-22T05:16:31.274Z,7.80
2022-09-22T05:18:58.274Z,7.35
2022-09-22T05:21:24.995Z,8.65
2022-09-22T05:23:51.754Z,7.50
2022-09-22T05:26:19.347Z,7.68
2022-09-22T05:28:48.288Z,8.50
2022-09-22T05:31:15.090Z,8.52
2022-09-22T05:33:42.015Z,8.18
2022-09-22T05:36:09.188Z,7.70
2022-09-22T05:38:36.025Z,7.13
2022-09-22T05:41:03.755Z,8.00
2022-09-22T05:43:30.546Z,8.07
2022-09-22T05:45:57.360Z,8.68
2022-09-22T05:48:27.580Z,8.05
2022-09-22T05:50:57.618Z,8.73
2022-09-22T05:53:24.296Z,7.78
2022-09-22T05:55:51.228Z,9.23
2022-09-22T05:58:20.561Z,8.60
2022-09-22T06:00:49.558Z,8.35
2022-09-22T06:03:16.507Z,9.30
2022-09-22T06:05:45.042Z,8.40
2022-09-22T06:08:12.058Z,8.75
2022-09-22T06:10:38.936Z,8.85
2022-09-22T06:13:07.764Z,8.95
2022-09-22T06:15:36.073Z,9.35
2022-09-22T06:18:06.938Z,9.88
2022-09-22T06:20:38.884Z,9.52
2022-09-22T06:23:05.528Z,10.50
2022-09-22T06:25:34.525Z,9.98
2022-09-22T06:28:05.260Z,10.43
2022-09-22T06:30:33.284Z,11.48
2022-09-22T06:33:00.030Z,10.80
2022-09-22T06:35:31.113Z,12.23
2022-09-22T06:37:58.565Z,14.18
2022-09-22T06:40:26.414Z,13.30
2022-09-22T06:42:58.041Z,13.35
2022-09-22T06:45:28.111Z,14.40
2022-09-22T06:47:59.042Z,15.27
2022-09-22T06:50:31.086Z,16.97
2022-09-22T06:53:02.339Z,17.73
2022-09-22T06:55:30.867Z,18.00
2022-09-22T06:58:02.837Z,20.45
2022-09-22T07:00:33.886Z,20.77
2022-09-22T07:03:22.792Z,21.38
2022-09-22T07:06:01.037Z,21.08
2022-09-22T07:08:29.504Z,21.50
2022-09-22T07:10:58.719Z,21.48
2022-09-22T07:13:29.838Z,21.90
2022-09-22T07:16:01.641Z,21.25
2022-09-22T07:18:31.958Z,21.60
2022-09-22T07:21:07.813Z,21.85
2022-09-22T07:23:36.577Z,23.95
2022-09-22T07:26:05.878Z,24.50
2022-09-22T07:28:35.143Z,24.42
2022-09-22T07:31:12.764Z,25.30
2022-09-22T07:33:43.589Z,25.65
2022-09-22T07:36:20.099Z,25.75
2022-09-22T07:38:51.655Z,25.45
2022-09-22T07:41:24.509Z,25.58
2022-09-22T07:43:53.378Z,26.40
2022-09-22T07:46:20.647Z,26.73
2022-09-22T07:48:48.129Z,26.83
2022-09-22T07:51:23.464Z,27.90
2022-09-22T07:54:07.241Z,28.00
2022-09-22T07:56:44.467Z,28.33
2022-09-22T07:59:16.838Z,27.00
2022-09-22T08:01:47.613Z,27.48
2022-09-22T08:04:16.675Z,27.90
2022-09-22T08:06:47.033Z,29.15
2022-09-22T08:09:14.416Z,27.58
2022-09-22T08:11:48.885Z,29.05
2022-09-22T08:14:18.622Z,28.27
2022-09-22T08:16:50.503Z,25.08
2022-09-22T08:19:18.503Z,26.42
2022-09-22T08:21:49.110Z,26.95
2022-09-22T08:24:23.368Z,25.15
2022-09-22T08:26:55.843Z,25.70
2022-09-22T08:29:24.396Z,26.98
2022-09-22T08:31:51.674Z,25.65
2022-09-22T08:34:18.558Z,25.70
2022-09-22T08:36:49.043Z,23.65
2022-09-22T08:39:17.425Z,23.50
2022-09-22T08:42:09.320Z,23.52
2022-09-22T08:47:06.393Z,21.05
2022-09-22T08:49:58.516Z,21.33
2022-09-22T08:52:50.619Z,21.35
2022-09-22T08:55:21.898Z,17.65
2022-09-22T08:57:56.376Z,15.30
2022-09-22T09:00:26.996Z,13.27
2022-09-22T09:03:24.612Z,11.32
2022-09-22T09:06:19.656Z,10.13
2022-09-22T09:08:55.774Z,9.90
2022-09-22T09:11:45.774Z,9.80
2022-09-22T09:14:23.854Z,9.63
2022-09-22T09:17:00.266Z,9.15
2022-09-22T09:19:35.212Z,9.30
2022-09-22T09:22:35.738Z,9.25
2022-09-22T09:25:23.837Z,8.80
2022-09-22T09:27:57.679Z,9.05
2022-09-22T09:30:24.467Z,9.40
2022-09-22T09:32:59.191Z,9.38
2022-09-22T09:35:41.288Z,8.52
2022-09-22T09:38:12.011Z,9.02
2022-09-22T09:40:41.147Z,9.52
2022-09-22T09:43:08.630Z,9.50
2022-09-22T09:45:50.359Z,8.20
2022-09-22T09:51:05.694Z,7.72
2022-09-22T09:53:41.017Z,7.18
2022-09-22T09:56:28.219Z,7.13
2022-09-22T09:59:18.964Z,6.68
2022-09-22T10:01:48.341Z,6.65
2022-09-22T10:04:28.915Z,6.03
2022-09-22T10:07:21.537Z,7.13
2022-09-22T10:09:50.139Z,7.45
2022-09-22T10:12:27.819Z,7.78
2022-09-22T10:14:59.748Z,6.13
2022-09-22T10:17:41.652Z,4.90
2022-09-22T10:20:34.844Z,4.93
2022-09-22T10:23:22.182Z,5.75
2022-09-22T10:25:53.366Z,6.00
2022-09-22T10:28:21.771Z,5.80
2022-09-22T10:31:00.296Z,4.53
2022-09-22T10:33:29.196Z,4.03
2022-09-22T10:35:56.918Z,3.40
2022-09-22T10:38:27.094Z,3.72
2022-09-22T10:41:00.154Z,3.47
2022-09-22T10:44:37.610Z,3.58
2022-09-22T10:47:48.827Z,3.75
2022-09-22T10:50:41.289Z,3.35
2022-09-22T10:53:25.552Z,3.83
2022-09-22T10:56:39.602Z,4.03
2022-09-22T10:59:37.282Z,3.47
2022-09-22T11:02:39.361Z,2.40
2022-09-22T11:05:57.152Z,2.70
2022-09-22T11:08:42.728Z,2.03
2022-09-22T11:11:53.923Z,1.98
2022-09-22T11:17:45.259Z,3.88
2022-09-22T11:20:27.115Z,3.20
2022-09-22T11:25:54.260Z,4.32
2022-09-22T11:28:39.140Z,4.25
2022-09-22T11:31:06.339Z,4.90
2022-09-22T11:33:51.546Z,5.57
2022-09-22T11:36:54.297Z,5.35
2022-09-22T11:39:28.826Z,4.10
2022-09-22T11:42:07.204Z,3.25
2022-09-22T11:44:48.106Z,3.50
2022-09-22T11:47:43.412Z,3.60
2022-09-22T11:50:58.754Z,3.30
2022-09-22T11:53:54.564Z,2.25
2022-09-22T11:56:40.225Z,2.30
2022-09-22T11:59:39.692Z,2.35
2022-09-22T12:02:52.919Z,2.28
2022-09-22T12:05:27.089Z,2.58
2022-09-22T12:08:02.951Z,2.45
2022-09-22T12:10:35.087Z,2.28
2022-09-22T12:13:05.761Z,2.47
2022-09-22T12:15:42.261Z,2.30
2022-09-22T12:18:19.847Z,2.38
2022-09-22T12:21:06.728Z,2.22
2022-09-22T12:23:40.692Z,2.17
2022-09-22T12:26:10.127Z,2.30
2022-09-22T12:28:48.096Z,1.70
2022-09-22T12:31:20.819Z,2.33
2022-09-22T12:33:53.446Z,1.90
2022-09-22T12:36:31.798Z,1.70
2022-09-22T12:39:25.719Z,2.05
2022-09-22T12:42:01.734Z,2.25
2022-09-22T12:44:37.380Z,1.80
2022-09-22T12:47:08.001Z,1.80
2022-09-22T12:49:47.122Z,2.00
2022-09-22T12:52:39.579Z,1.90
2022-09-22T12:55:38.098Z,1.95
2022-09-22T12:58:30.607Z,2.30
2022-09-22T13:01:33.940Z,2.60
2022-09-22T13:04:15.415Z,2.63
2022-09-22T13:06:42.337Z,2.88
2022-09-22T13:09:20.049Z,2.47
2022-09-22T13:12:23.433Z,2.92
2022-09-22T13:15:08.213Z,3.50
2022-09-22T13:17:47.721Z,3.80
2022-09-22T13:20:24.099Z,3.30
2022-09-22T13:22:52.029Z,2.97
2022-09-22T13:25:28.591Z,3.80
2022-09-22T13:28:31.754Z,4.13
2022-09-22T13:31:06.094Z,3.33
2022-09-22T13:33:35.224Z,3.10
2022-09-22T13:36:12.316Z,3.40
2022-09-22T13:38:51.199Z,3.72
2022-09-22T13:41:24.010Z,4.00
2022-09-22T13:44:01.393Z,4.00
2022-09-22T13:46:43.801Z,4.03
2022-09-22T13:49:16.911Z,3.85
2022-09-22T13:51:48.276Z,3.65
2022-09-22T13:56:48.924Z,1.88
2022-09-22T13:59:17.665Z,1.70
2022-09-22T14:01:53.170Z,1.50
2022-09-22T14:04:25.594Z,1.38
2022-09-22T14:06:56.945Z,1.30
2022-09-22T14:11:51.815Z,1.40
2022-09-22T14:14:24.160Z,1.48
2022-09-22T14:16:59.098Z,1.40
2022-09-22T14:19:42.970Z,1.50
2022-09-22T14:22:24.579Z,1.50
2022-09-22T14:24:55.817Z,1.77
2022-09-22T14:27:47.979Z,1.45
2022-09-22T14:30:17.741Z,1.67
2022-09-22T14:32:50.724Z,1.30
2022-09-22T14:35:37.858Z,1.65
2022-09-22T14:38:14.458Z,2.00
2022-09-22T14:40:52.551Z,2.00
2022-09-22T14:43:35.466Z,1.73
2022-09-22T14:46:21.894Z,1.80
2022-09-22T14:48:48.808Z,1.73
2022-09-22T14:51:20.373Z,1.52
2022-09-22T14:53:51.678Z,1.88
2022-09-22T14:58:53.142Z,1.90
2022-09-22T15:01:44.121Z,1.70
2022-09-22T15:04:26.795Z,1.88
2022-09-22T15:06:56.577Z,2.17
2022-09-22T15:09:36.147Z,2.28
2022-09-22T15:12:03.885Z,2.40
2022-09-22T15:14:43.631Z,5.30
2022-09-22T15:18:00.536Z,2.90
2022-09-22T15:20:35.004Z,2.80
2022-09-22T15:23:02.878Z,3.15
2022-09-22T15:25:29.970Z,2.80
2022-09-22T15:27:57.890Z,3.25
2022-09-22T15:30:25.464Z,3.38
2022-09-22T15:32:52.232Z,3.50
2022-09-22T15:35:21.602Z,3.53
2022-09-22T15:37:50.047Z,3.42
2022-09-22T15:40:21.230Z,3.30
2022-09-22T15:43:11.352Z,2.70
2022-09-22T15:45:37.768Z,3.65
2022-09-22T15:48:04.851Z,3.15
2022-09-22T15:50:31.642Z,3.20
2022-09-22T15:52:58.740Z,3.08
2022-09-22T15:55:25.508Z,2.90
2022-09-22T15:57:55.274Z,2.83
2022-09-22T16:00:26.260Z,2.90
2022-09-22T16:02:54.669Z,2.72
2022-09-22T16:05:22.652Z,2.63
2022-09-22T16:07:51.250Z,2.70
2022-09-22T16:10:20.904Z,3.00
2022-09-22T16:12:59.224Z,3.03
2022-09-22T16:15:28.388Z,2.95
2022-09-22T16:17:59.851Z,2.90
2022-09-22T16:20:26.558Z,2.75
2022-09-22T16:22:53.281Z,2.50
2022-09-22T16:25:21.726Z,2.70
2022-09-22T16:27:49.747Z,2.80
2022-09-22T16:30:16.756Z,2.22
2022-09-22T16:32:43.433Z,2.50
2022-09-22T16:35:14.449Z,2.70
2022-09-22T16:37:43.392Z,2.63
2022-09-22T16:40:10.608Z,2.65
2022-09-22T16:42:39.718Z,2.78
2022-09-22T16:45:07.043Z,2.80
2022-09-22T16:47:33.728Z,3.00
2022-09-22T16:50:00.865Z,2.60
2022-09-22T16:52:31.951Z,2.72
2022-09-22T16:55:02.433Z,2.78
2022-09-22T16:57:29.150Z,2.50
2022-09-22T16:59:56.957Z,2.47
2022-09-22T17:02:24.057Z,2.30
2022-09-22T17:04:50.846Z,2.63
2022-09-22T17:07:17.523Z,2.90
2022-09-22T17:09:44.196Z,2.47
2022-09-22T17:12:10.993Z,2.45
2022-09-22T17:14:37.881Z,2.92
2022-09-22T17:17:07.386Z,2.80
2022-09-22T17:19:34.113Z,2.50
2022-09-22T17:22:00.862Z,3.13
2022-09-22T17:24:27.640Z,2.20
2022-09-22T17:26:57.199Z,2.15
2022-09-22T17:29:32.744Z,2.67
2022-09-22T17:32:04.357Z,2.60
2022-09-22T17:34:32.987Z,2.38
2022-09-22T17:37:01.331Z,2.17
2022-09-22T17:39:29.197Z,2.38
2022-09-22T17:41:56.167Z,2.83
2022-09-22T17:44:24.134Z,2.75
2022-09-22T17:47:11.258Z,2.92
2022-09-22T17:49:59.427Z,2.92
2022-09-22T17:52:29.395Z,2.85
2022-09-22T17:55:09.594Z,3.08
2022-09-22T17:57:45.180Z,3.10
2022-09-22T18:00:19.466Z,3.10
2022-09-22T18:02:46.762Z,2.97
2022-09-22T18:05:19.829Z,3.10
2022-09-22T18:07:49.448Z,2.97
2022-09-22T18:10:20.832Z,2.97
2022-09-22T18:12:47.755Z,2.90
2022-09-22T18:15:17.806Z,3.33
2022-09-22T18:17:48.114Z,3.17
2022-09-22T18:20:18.258Z,3.38
2022-09-22T18:22:47.928Z,3.45
2022-09-22T18:25:19.125Z,3.10
2022-09-22T18:27:51.657Z,3.75
2022-09-22T18:30:23.099Z,3.28
2022-09-22T18:35:21.453Z,3.58
2022-09-22T18:37:50.346Z,3.15
2022-09-22T18:40:17.289Z,3.40
2022-09-22T18:42:46.301Z,3.38
2022-09-22T18:45:14.200Z,3.83
2022-09-22T18:47:44.057Z,3.67
2022-09-22T18:50:14.640Z,3.55
2022-09-22T18:52:45.902Z,3.70
2022-09-22T18:55:18.690Z,3.65
2022-09-22T18:57:48.725Z,3.47
2022-09-22T19:00:15.980Z,3.70
2022-09-22T19:02:43.540Z,3.83
2022-09-22T19:05:10.442Z,3.42
2022-09-22T19:07:44.173Z,3.97
2022-09-22T19:10:18.856Z,3.67
2022-09-22T19:12:47.779Z,3.90
2022-09-22T19:15:18.536Z,4.18
2022-09-22T19:17:47.481Z,4.03
2022-09-22T19:20:21.205Z,4.72
2022-09-22T19:22:49.370Z,4.43
2022-09-22T19:25:18.372Z,4.00
2022-09-22T19:27:45.151Z,4.80
2022-09-22T19:30:14.657Z,4.60
2022-09-22T19:32:45.993Z,5.18
2022-09-22T19:35:15.080Z,5.03
2022-09-22T19:37:42.016Z,4.93
2022-09-22T19:40:13.025Z,4.90
2022-09-22T19:42:40.525Z,5.22
2022-09-22T19:45:12.101Z,4.28
2022-09-22T19:47:41.442Z,3.80
2022-09-22T19:50:08.770Z,4.85
2022-09-22T19:52:37.677Z,5.40
2022-09-22T19:55:07.461Z,4.70
2022-09-22T19:57:38.324Z,4.43
2022-09-22T20:00:07.770Z,4.97
2022-09-22T20:02:34.540Z,4.88
2022-09-22T20:05:01.339Z,5.00
2022-09-22T20:07:33.898Z,4.80
2022-09-22T20:10:02.802Z,4.57
2022-09-22T20:12:29.539Z,4.45
2022-09-22T20:14:56.314Z,4.68
2022-09-22T20:17:25.231Z,4.88
2022-09-22T20:19:57.114Z,5.25
2022-09-22T20:22:26.299Z,4.93
2022-09-22T20:24:54.841Z,4.63
2022-09-22T20:27:33.709Z,4.90
2022-09-22T20:30:01.037Z,5.15
2022-09-22T20:32:32.330Z,6.18
2022-09-22T20:35:01.704Z,6.10
2022-09-22T20:37:30.875Z,6.40
2022-09-22T20:39:59.972Z,6.05
2022-09-22T20:42:26.919Z,6.18
2022-09-22T20:44:54.982Z,6.45
2022-09-22T20:47:25.261Z,5.80
2022-09-22T20:49:52.228Z,6.10
2022-09-22T20:52:20.661Z,6.47
2022-09-22T20:54:48.301Z,6.78
2022-09-22T20:57:15.422Z,6.68
2022-09-22T20:59:45.074Z,6.78
2022-09-22T21:02:15.138Z,6.85
2022-09-22T21:04:42.568Z,6.55
2022-09-22T21:07:11.252Z,6.90
2022-09-22T21:09:56.707Z,6.78
2022-09-22T21:12:30.025Z,7.20
2022-09-22T21:14:58.409Z,6.40
2022-09-22T21:17:27.969Z,6.65
2022-09-22T21:19:57.799Z,6.68
2022-09-22T21:22:25.357Z,7.75
2022-09-22T21:24:52.587Z,7.15
2022-09-22T21:27:21.577Z,7.10
2022-09-22T21:29:50.674Z,7.35
2022-09-22T21:32:19.865Z,7.55
2022-09-22T21:34:47.873Z,7.55
2022-09-22T21:37:14.758Z,7.70
2022-09-22T21:39:41.514Z,7.72
2022-09-22T21:42:08.250Z,7.53
2022-09-22T21:44:34.973Z,7.80
2022-09-22T21:47:04.845Z,8.55
2022-09-22T21:49:31.577Z,8.65
2022-09-22T21:51:58.628Z,8.65
2022-09-22T21:54:25.377Z,9.27
2022-09-22T21:56:52.113Z,8.23
2022-09-22T21:59:21.759Z,8.35
2022-09-22T22:01:48.666Z,9.20
2022-09-22T22:04:18.021Z,8.15
2022-09-22T22:06:46.585Z,8.90
2022-09-22T22:09:16.127Z,8.40
2022-09-22T22:11:49.135Z,8.13
2022-09-22T22:14:21.631Z,8.63
2022-09-22T22:16:50.917Z,8.57
2022-09-22T22:19:20.343Z,8.48
2022-09-22T22:21:50.795Z,8.52
2022-09-22T22:24:28.644Z,8.48
2022-09-22T22:26:58.691Z,8.75
2022-09-22T22:29:26.866Z,8.90
2022-09-22T22:31:56.451Z,8.98
2022-09-22T22:34:27.395Z,8.85
2022-09-22T22:36:55.887Z,9.07
2022-09-22T22:39:22.658Z,9.85
2022-09-22T22:41:49.402Z,9.40
2022-09-22T22:44:18.975Z,8.88
2022-09-22T22:46:46.569Z,9.35
2022-09-22T22:49:13.572Z,9.00
2022-09-22T22:51:43.094Z,9.30
2022-09-22T22:54:11.238Z,10.32
2022-09-22T22:56:42.524Z,9.23
2022-09-22T22:59:10.584Z,9.18
2022-09-22T23:01:37.757Z,8.90
2022-09-22T23:04:09.230Z,9.18
2022-09-22T23:06:39.553Z,9.05
2022-09-22T23:09:08.262Z,9.38
2022-09-22T23:11:37.916Z,9.57
2022-09-22T23:14:07.080Z,9.80
2022-09-22T23:16:39.168Z,9.35
2022-09-22T23:19:08.668Z,8.85
2022-09-22T23:21:36.340Z,8.77
2022-09-22T23:24:04.094Z,8.93
2022-09-22T23:26:32.023Z,8.60
2022-09-22T23:28:59.390Z,8.32
2022-09-22T23:31:28.707Z,8.45
2022-09-22T23:33:57.537Z,8.60
2022-09-22T23:36:26.295Z,8.57
2022-09-22T23:38:54.451Z,8.40
2022-09-22T23:41:21.645Z,7.90
2022-09-22T23:43:48.368Z,8.07
2022-09-22T23:46:15.308Z,7.72
2022-09-22T23:48:42.129Z,8.00
2022-09-22T23:51:10.179Z,8.18
2022-09-22T23:53:37.080Z,7.82
2022-09-22T23:56:05.871Z,7.22
2022-09-22T23:58:33.884Z,7.72
